createdAt,value
2023-02-12T00:01:25.566Z,101676.20
2023-02-12T00:03:53.554Z,101680.64
2023-02-12T00:06:21.392Z,101679.66
2023-02-12T00:08:51.354Z,101689.98
2023-02-12T00:11:22.676Z,101693.62
2023-02-12T00:13:50.842Z,101697.73
2023-02-12T00:16:22.190Z,101706.38
2023-02-12T00:18:52.977Z,101715.63
2023-02-12T00:21:22.391Z,101713.70
2023-02-12T00:23:50.158Z,101718.24
2023-02-12T00:26:20.548Z,101724.29
2023-02-12T00:28:50.654Z,101740.14
2023-02-12T00:31:22.284Z,101745.45
2023-02-12T00:33:50.901Z,101746.52
2023-02-12T00:36:24.707Z,101756.71
2023-02-12T00:38:54.444Z,101759.06
2023-02-12T00:41:22.882Z,101766.38
2023-02-12T00:43:51.163Z,101776.58
2023-02-12T00:46:19.265Z,101773.80
2023-02-12T00:48:47.166Z,101772.55
2023-02-12T00:51:15.065Z,101772.98
2023-02-12T00:53:42.901Z,101782.00
2023-02-12T00:56:10.799Z,101785.84
2023-02-12T00:58:38.602Z,101788.71
2023-02-12T01:01:08.014Z,101790.54
2023-02-12T01:03:36.934Z,101792.62
2023-02-12T01:06:05.971Z,101793.50
2023-02-12T01:08:33.747Z,101799.86
2023-02-12T01:11:03.786Z,101799.11
2023-02-12T01:13:33.708Z,101810.58
2023-02-12T01:16:16.424Z,101816.65
2023-02-12T01:18:45.307Z,101820.16
2023-02-12T01:21:19.243Z,101830.08
2023-02-12T01:23:47.307Z,101832.02
2023-02-12T01:26:17.022Z,101829.95
2023-02-12T01:28:48.775Z,101837.14
2023-02-12T01:31:19.306Z,101838.37
2023-02-12T01:33:52.283Z,101837.86
2023-02-12T01:36:20.503Z,101837.35
2023-02-12T01:38:50.165Z,101833.17
2023-02-12T01:41:30.047Z,101841.29
2023-02-12T01:44:30.908Z,101841.13
2023-02-12T01:47:01.422Z,101855.16
2023-02-12T01:49:37.909Z,101857.83
2023-02-12T01:52:20.161Z,101855.33
2023-02-12T01:54:50.372Z,101866.98
2023-02-12T01:57:19.048Z,101857.91
2023-02-12T01:59:51.200Z,101853.49
2023-02-12T02:02:19.380Z,101865.94
2023-02-12T02:04:54.602Z,101877.21
2023-02-12T02:07:22.372Z,101880.58
2023-02-12T02:09:50.822Z,101881.46
2023-02-12T02:12:37.187Z,101890.64
2023-02-12T02:15:06.153Z,101902.05
2023-02-12T02:17:39.932Z,101906.48
2023-02-12T02:20:26.074Z,101906.00
2023-02-12T02:23:12.075Z,101908.72
2023-02-12T02:26:01.181Z,101917.89
2023-02-12T02:28:44.092Z,101918.60
2023-02-12T02:31:35.455Z,101916.84
2023-02-12T02:34:28.202Z,101923.20
2023-02-12T02:37:04.018Z,101931.27
2023-02-12T02:39:40.037Z,101939.29
2023-02-12T02:42:10.815Z,101943.19
2023-02-12T02:44:47.285Z,101946.13
2023-02-12T02:47:19.150Z,101947.06
2023-02-12T02:49:56.207Z,101955.02
2023-02-12T02:52:37.349Z,101963.96
2023-02-12T02:55:11.202Z,101963.11
2023-02-12T02:57:46.581Z,101970.45
2023-02-12T03:00:22.271Z,101977.25
2023-02-12T03:02:52.809Z,101992.41
2023-02-12T03:05:30.073Z,101997.92
2023-02-12T03:08:12.440Z,101997.55
2023-02-12T03:10:45.782Z,101999.98
2023-02-12T03:13:26.566Z,102005.18
2023-02-12T03:16:06.377Z,102012.37
2023-02-12T03:18:41.620Z,102019.85
2023-02-12T03:21:17.940Z,102026.61
2023-02-12T03:24:01.028Z,102038.63
2023-02-12T03:26:42.442Z,102045.22
2023-02-12T03:29:10.434Z,102051.33
2023-02-12T03:32:09.721Z,102050.09
2023-02-12T03:35:06.699Z,102052.04
2023-02-12T03:37:43.710Z,102053.55
2023-02-12T03:40:16.268Z,102062.59
2023-02-12T03:43:20.793Z,102059.22
2023-02-12T03:46:13.515Z,102067.23
2023-02-12T03:48:56.722Z,102074.02
2023-02-12T03:51:34.583Z,102083.91
2023-02-12T03:54:04.390Z,102081.03
2023-02-12T03:56:39.664Z,102082.16
2023-02-12T03:59:07.618Z,102084.04
2023-02-12T04:01:36.551Z,102093.46
2023-02-12T04:04:06.796Z,102104.23
2023-02-12T04:06:35.379Z,102109.88
2023-02-12T04:09:09.596Z,102118.16
2023-02-12T04:11:59.158Z,102124.80
2023-02-12T04:14:31.410Z,102119.50
2023-02-12T04:17:08.967Z,102115.08
2023-02-12T04:20:10.446Z,102112.94
2023-02-12T04:22:50.170Z,102119.99
2023-02-12T04:25:39.415Z,102122.29
2023-02-12T04:28:29.544Z,102125.50
2023-02-12T04:31:07.948Z,102128.96
2023-02-12T04:33:47.344Z,102127.71
2023-02-12T04:36:23.736Z,102130.17
2023-02-12T04:38:55.532Z,102132.56
2023-02-12T04:41:25.691Z,102132.54
2023-02-12T04:43:53.468Z,102131.08
2023-02-12T04:46:21.190Z,102132.60
2023-02-12T04:48:58.625Z,102133.24
2023-02-12T04:51:26.500Z,102135.14
2023-02-12T04:53:54.243Z,102142.30
2023-02-12T04:56:21.948Z,102142.68
2023-02-12T04:58:50.527Z,102144.98
2023-02-12T05:01:18.292Z,102155.10
2023-02-12T05:03:46.192Z,102156.77
2023-02-12T05:06:13.992Z,102159.08
2023-02-12T05:08:41.701Z,102158.59
2023-02-12T05:11:10.353Z,102165.95
2023-02-12T05:13:38.272Z,102172.35
2023-02-12T05:16:07.360Z,102173.92
2023-02-12T05:18:35.800Z,102179.42
2023-02-12T05:21:05.602Z,102184.95
2023-02-12T05:23:34.717Z,102189.04
2023-02-12T05:26:05.783Z,102193.84
2023-02-12T05:28:33.602Z,102199.63
2023-02-12T05:31:03.548Z,102204.49
2023-02-12T05:33:32.155Z,102208.15
2023-02-12T05:36:10.837Z,102212.36
2023-02-12T05:38:38.701Z,102216.80
2023-02-12T05:41:15.160Z,102221.95
2023-02-12T05:43:43.241Z,102231.05
2023-02-12T05:46:12.158Z,102237.67
2023-02-12T05:48:40.386Z,102242.92
2023-02-12T05:51:11.967Z,102243.74
2023-02-12T05:53:41.065Z,102249.61
2023-02-12T05:56:11.976Z,102250.98
2023-02-12T05:58:41.728Z,102256.70
2023-02-12T06:01:14.269Z,102264.34
2023-02-12T06:03:42.751Z,102266.75
2023-02-12T06:06:10.912Z,102273.60
2023-02-12T06:08:39.352Z,102282.48
2023-02-12T06:11:11.022Z,102284.45
2023-02-12T06:13:38.779Z,102291.43
2023-02-12T06:16:07.001Z,102295.42
2023-02-12T06:18:37.929Z,102298.59
2023-02-12T06:21:06.104Z,102296.33
2023-02-12T06:23:33.876Z,102302.84
2023-02-12T06:26:01.566Z,102309.44
2023-02-12T06:28:29.385Z,102313.10
2023-02-12T06:30:57.246Z,102315.05
2023-02-12T06:33:25.021Z,102319.97
2023-02-12T06:35:52.889Z,102319.77
2023-02-12T06:38:20.797Z,102321.57
2023-02-12T06:40:48.754Z,102327.55
2023-02-12T06:43:16.550Z,102332.33
2023-02-12T06:45:44.400Z,102335.04
2023-02-12T06:48:12.128Z,102336.70
2023-02-12T06:50:39.824Z,102334.06
2023-02-12T06:53:07.584Z,102331.38
2023-02-12T06:55:35.363Z,102333.45
2023-02-12T06:58:03.151Z,102335.23
2023-02-12T07:00:30.925Z,102340.23
2023-02-12T07:02:58.856Z,102341.95
2023-02-12T07:05:26.752Z,102346.89
2023-02-12T07:07:54.553Z,102345.60
2023-02-12T07:10:22.254Z,102345.30
2023-02-12T07:12:49.946Z,102344.12
2023-02-12T07:15:17.698Z,102347.15
2023-02-12T07:17:45.532Z,102348.48
2023-02-12T07:20:13.592Z,102347.72
2023-02-12T07:22:41.430Z,102357.17
2023-02-12T07:25:09.302Z,102361.75
2023-02-12T07:27:38.110Z,102362.59
2023-02-12T07:30:07.456Z,102361.98
2023-02-12T07:32:35.596Z,102361.95
2023-02-12T07:35:03.434Z,102365.84
2023-02-12T07:37:31.224Z,102366.17
2023-02-12T07:39:58.953Z,102362.04
2023-02-12T07:42:26.709Z,102362.41
2023-02-12T07:44:54.400Z,102358.98
2023-02-12T07:47:22.276Z,102361.06
2023-02-12T07:49:50.139Z,102362.21
2023-02-12T07:52:17.976Z,102360.09
2023-02-12T07:54:45.750Z,102360.02
2023-02-12T07:57:13.545Z,102363.17
2023-02-12T07:59:41.308Z,102371.95
2023-02-12T08:02:09.844Z,102379.75
2023-02-12T08:04:37.717Z,102388.83
2023-02-12T08:07:05.652Z,102391.16
2023-02-12T08:09:33.410Z,102395.23
2023-02-12T08:12:01.150Z,102396.40
2023-02-12T08:14:29.301Z,102403.19
2023-02-12T08:16:57.343Z,102404.41
2023-02-12T08:19:26.826Z,102404.45
2023-02-12T08:21:56.977Z,102408.29
2023-02-12T08:24:25.639Z,102413.39
2023-02-12T08:26:53.780Z,102410.12
2023-02-12T08:29:25.586Z,102409.70
2023-02-12T08:31:59.143Z,102408.41
2023-02-12T08:34:29.607Z,102410.88
2023-02-12T08:36:58.098Z,102412.29
2023-02-12T08:39:28.764Z,102416.39
2023-02-12T08:41:58.623Z,102417.95
2023-02-12T08:44:26.609Z,102414.36
2023-02-12T08:46:55.763Z,102412.52
2023-02-12T08:49:26.768Z,102407.02
2023-02-12T08:51:56.683Z,102407.91
2023-02-12T08:54:26.949Z,102410.36
2023-02-12T08:56:56.759Z,102409.25
2023-02-12T08:59:24.977Z,102401.21
2023-02-12T09:01:53.745Z,102397.96
2023-02-12T09:04:27.354Z,102394.59
2023-02-12T09:06:55.808Z,102390.38
2023-02-12T09:09:23.617Z,102386.00
2023-02-12T09:11:51.556Z,102392.80
2023-02-12T09:14:26.045Z,102401.15
2023-02-12T09:16:55.034Z,102402.26
2023-02-12T09:19:23.144Z,102410.00
2023-02-12T09:21:55.569Z,102412.23
2023-02-12T09:24:25.641Z,102411.70
2023-02-12T09:26:53.464Z,102411.95
2023-02-12T09:29:21.371Z,102407.97
2023-02-12T09:31:49.218Z,102409.05
2023-02-12T09:34:17.216Z,102412.05
2023-02-12T09:36:45.053Z,102415.09
2023-02-12T09:39:12.823Z,102414.33
2023-02-12T09:41:59.019Z,102421.00
2023-02-12T09:44:26.758Z,102420.16
2023-02-12T09:47:17.714Z,102425.61
2023-02-12T09:50:23.893Z,102437.80
2023-02-12T09:52:54.723Z,102435.27
2023-02-12T09:55:29.357Z,102438.52
2023-02-12T09:57:57.377Z,102437.53
2023-02-12T10:00:29.063Z,102431.41
2023-02-12T10:03:01.732Z,102433.57
2023-02-12T10:05:43.303Z,102428.52
2023-02-12T10:08:14.290Z,102426.02
2023-02-12T10:10:53.354Z,102425.54
2023-02-12T10:13:39.333Z,102432.48
2023-02-12T10:16:20.502Z,102435.21
2023-02-12T10:18:59.940Z,102443.02
2023-02-12T10:22:12.564Z,102444.05
2023-02-12T10:24:52.192Z,102441.67
2023-02-12T10:27:38.199Z,102430.18
2023-02-12T10:30:49.947Z,102420.31
2023-02-12T10:33:26.909Z,102422.01
2023-02-12T10:36:02.297Z,102429.30
2023-02-12T10:38:36.432Z,102425.86
2023-02-12T10:41:04.235Z,102429.30
2023-02-12T10:43:32.567Z,102426.58
2023-02-12T10:46:00.291Z,102423.80
2023-02-12T10:48:36.932Z,102423.11
2023-02-12T10:51:07.678Z,102420.59
2023-02-12T10:53:38.600Z,102416.24
2023-02-12T10:56:17.442Z,102425.27
2023-02-12T10:58:59.716Z,102432.23
2023-02-12T11:01:28.754Z,102425.78
2023-02-12T11:03:58.817Z,102420.80
2023-02-12T11:06:29.875Z,102418.81
2023-02-12T11:08:59.112Z,102420.41
2023-02-12T11:11:31.472Z,102416.70
2023-02-12T11:14:16.817Z,102418.80
2023-02-12T11:16:56.803Z,102422.33
2023-02-12T11:19:30.456Z,102415.64
2023-02-12T11:22:11.263Z,102415.89
2023-02-12T11:24:39.020Z,102413.27
2023-02-12T11:27:15.617Z,102411.88
2023-02-12T11:29:44.604Z,102417.36
2023-02-12T11:32:18.469Z,102417.52
2023-02-12T11:35:14.935Z,102419.78
2023-02-12T11:37:44.760Z,102419.23
2023-02-12T11:40:25.478Z,102417.13
2023-02-12T11:42:59.398Z,102412.52
2023-02-12T11:45:34.570Z,102411.38
2023-02-12T11:48:03.041Z,102407.45
2023-02-12T11:50:35.178Z,102412.13
2023-02-12T11:53:09.442Z,102408.55
2023-02-12T11:55:40.934Z,102402.95
2023-02-12T11:58:20.831Z,102403.63
2023-02-12T12:01:20.304Z,102403.66
2023-02-12T12:04:09.972Z,102396.44
2023-02-12T12:06:44.420Z,102393.48
2023-02-12T12:09:29.128Z,102396.83
2023-02-12T12:12:03.004Z,102397.75
2023-02-12T12:15:01.058Z,102399.61
2023-02-12T12:18:04.348Z,102398.45
2023-02-12T12:20:39.231Z,102400.85
2023-02-12T12:23:17.421Z,102409.44
2023-02-12T12:25:56.156Z,102405.51
2023-02-12T12:28:42.057Z,102401.13
2023-02-12T12:31:17.305Z,102398.31
2023-02-12T12:33:52.972Z,102393.52
2023-02-12T12:36:51.905Z,102385.44
2023-02-12T12:39:34.918Z,102378.19
2023-02-12T12:42:02.699Z,102372.48
2023-02-12T12:45:03.196Z,102369.19
2023-02-12T12:47:30.785Z,102375.30
2023-02-12T12:50:21.993Z,102378.75
2023-02-12T12:53:10.035Z,102376.24
2023-02-12T12:56:15.153Z,102368.05
2023-02-12T12:58:54.476Z,102356.23
2023-02-12T13:01:36.364Z,102365.36
2023-02-12T13:04:30.759Z,102362.78
2023-02-12T13:07:32.603Z,102362.39
2023-02-12T13:10:24.413Z,102371.75
2023-02-12T13:13:01.366Z,102373.95
2023-02-12T13:15:50.904Z,102369.48
2023-02-12T13:18:36.746Z,102366.62
2023-02-12T13:21:25.645Z,102361.11
2023-02-12T13:24:02.558Z,102364.58
2023-02-12T13:26:41.458Z,102363.77
2023-02-12T13:29:19.107Z,102366.91
2023-02-12T13:32:05.455Z,102364.50
2023-02-12T13:34:36.715Z,102368.79
2023-02-12T13:37:10.123Z,102376.41
2023-02-12T13:39:41.601Z,102372.70
2023-02-12T13:42:27.456Z,102373.33
2023-02-12T13:45:07.715Z,102370.55
2023-02-12T13:47:56.853Z,102374.60
2023-02-12T13:50:43.264Z,102370.45
2023-02-12T13:53:23.695Z,102371.70
2023-02-12T13:55:54.618Z,102369.36
2023-02-12T13:58:37.830Z,102368.88
2023-02-12T14:01:12.563Z,102374.33
2023-02-12T14:03:40.893Z,102374.51
2023-02-12T14:06:18.113Z,102370.27
2023-02-12T14:09:07.723Z,102363.36
2023-02-12T14:11:48.571Z,102366.10
2023-02-12T14:14:27.871Z,102367.10
2023-02-12T14:16:55.634Z,102364.54
2023-02-12T14:19:38.608Z,102365.56
2023-02-12T14:22:32.844Z,102368.39
2023-02-12T14:25:25.466Z,102376.09
2023-02-12T14:27:55.432Z,102376.27
2023-02-12T14:30:38.332Z,102374.95
2023-02-12T14:33:06.736Z,102370.87
2023-02-12T14:35:49.591Z,102372.64
2023-02-12T14:38:19.805Z,102367.73
2023-02-12T14:40:49.378Z,102376.02
2023-02-12T14:43:56.973Z,102372.74
2023-02-12T14:46:24.789Z,102367.30
2023-02-12T14:49:05.913Z,102365.35
2023-02-12T14:51:55.606Z,102364.66
2023-02-12T14:54:37.086Z,102367.60
2023-02-12T14:57:11.680Z,102366.76
2023-02-12T14:59:43.580Z,102367.21
2023-02-12T15:02:34.540Z,102373.83
2023-02-12T15:05:06.857Z,102376.98
2023-02-12T15:07:44.605Z,102372.02
2023-02-12T15:10:20.262Z,102374.02
2023-02-12T15:13:07.748Z,102375.98
2023-02-12T15:15:49.306Z,102376.86
2023-02-12T15:18:43.113Z,102376.59
2023-02-12T15:21:23.037Z,102380.33
2023-02-12T15:24:20.442Z,102381.00
2023-02-12T15:26:51.690Z,102379.23
2023-02-12T15:29:27.469Z,102384.55
2023-02-12T15:31:59.032Z,102384.51
2023-02-12T15:34:30.362Z,102387.59
2023-02-12T15:37:01.828Z,102386.50
2023-02-12T15:39:41.786Z,102388.05
2023-02-12T15:42:37.908Z,102391.61
2023-02-12T15:45:14.950Z,102396.14
2023-02-12T15:47:44.919Z,102395.23
2023-02-12T15:50:15.241Z,102396.21
2023-02-12T15:52:46.416Z,102396.48
2023-02-12T15:55:21.815Z,102404.54
2023-02-12T15:57:58.477Z,102405.88
2023-02-12T16:00:53.480Z,102407.90
2023-02-12T16:03:36.297Z,102408.66
2023-02-12T16:06:13.786Z,102403.02
2023-02-12T16:08:45.604Z,102403.68
2023-02-12T16:11:17.246Z,102395.31
2023-02-12T16:13:59.427Z,102392.43
2023-02-12T16:16:29.241Z,102390.27
2023-02-12T16:19:20.388Z,102388.67
2023-02-12T16:21:51.723Z,102388.68
2023-02-12T16:24:49.557Z,102386.91
2023-02-12T16:27:34.531Z,102386.46
2023-02-12T16:30:06.184Z,102386.14
2023-02-12T16:32:37.959Z,102390.06
2023-02-12T16:35:12.097Z,102394.02
2023-02-12T16:37:39.878Z,102397.20
2023-02-12T16:40:23.116Z,102394.80
2023-02-12T16:42:50.862Z,102392.86
2023-02-12T16:45:27.703Z,102392.85
2023-02-12T16:48:08.637Z,102387.31
2023-02-12T16:50:43.471Z,102386.85
2023-02-12T16:53:29.958Z,102381.48
2023-02-12T16:55:59.054Z,102376.45
2023-02-12T16:58:28.526Z,102378.20
2023-02-12T17:00:59.352Z,102378.38
2023-02-12T17:03:27.515Z,102376.59
2023-02-12T17:05:55.857Z,102377.25
2023-02-12T17:08:24.408Z,102372.70
2023-02-12T17:10:52.419Z,102373.95
2023-02-12T17:13:21.046Z,102373.94
2023-02-12T17:15:58.309Z,102371.95
2023-02-12T17:18:26.472Z,102371.98
2023-02-12T17:20:57.789Z,102373.39
2023-02-12T17:23:26.309Z,102373.58
2023-02-12T17:25:54.820Z,102365.28
2023-02-12T17:28:25.032Z,102371.45
2023-02-12T17:30:54.069Z,102378.33
2023-02-12T17:33:22.763Z,102379.53
2023-02-12T17:35:50.558Z,102376.14
2023-02-12T17:38:18.500Z,102377.30
2023-02-12T17:40:46.316Z,102382.64
2023-02-12T17:43:14.037Z,102388.41
2023-02-12T17:45:43.372Z,102388.63
2023-02-12T17:48:12.605Z,102390.38
2023-02-12T17:50:40.905Z,102388.19
2023-02-12T17:53:09.789Z,102395.58
2023-02-12T17:55:41.333Z,102396.41
2023-02-12T17:58:09.072Z,102402.69
2023-02-12T18:00:36.874Z,102410.59
2023-02-12T18:03:04.619Z,102413.66
2023-02-12T18:05:32.506Z,102413.44
2023-02-12T18:08:02.254Z,102414.39
2023-02-12T18:10:30.088Z,102411.17
2023-02-12T18:12:57.811Z,102414.02
2023-02-12T18:15:25.516Z,102410.39
2023-02-12T18:17:53.327Z,102409.27
2023-02-12T18:20:21.238Z,102406.11
2023-02-12T18:22:50.219Z,102412.58
2023-02-12T18:25:18.964Z,102407.38
2023-02-12T18:27:46.825Z,102398.52
2023-02-12T18:30:15.120Z,102392.42
2023-02-12T18:32:43.692Z,102388.35
2023-02-12T18:35:11.657Z,102383.70
2023-02-12T18:37:43.258Z,102375.23
2023-02-12T18:40:12.148Z,102377.94
2023-02-12T18:42:40.068Z,102375.30
2023-02-12T18:45:08.369Z,102375.13
2023-02-12T18:47:36.443Z,102374.76
2023-02-12T18:50:04.563Z,102367.96
2023-02-12T18:52:32.829Z,102362.20
2023-02-12T18:55:00.749Z,102359.80
2023-02-12T18:57:29.862Z,102360.48
2023-02-12T18:59:57.707Z,102365.36
2023-02-12T19:02:25.680Z,102363.91
2023-02-12T19:04:53.798Z,102364.16
2023-02-12T19:07:21.645Z,102363.23
2023-02-12T19:09:49.754Z,102365.95
2023-02-12T19:12:17.518Z,102361.19
2023-02-12T19:14:45.734Z,102363.41
2023-02-12T19:17:13.598Z,102361.20
2023-02-12T19:19:41.478Z,102363.69
2023-02-12T19:22:09.208Z,102359.70
2023-02-12T19:24:46.166Z,102357.44
2023-02-12T19:27:14.647Z,102353.45
2023-02-12T19:29:42.380Z,102350.42
2023-02-12T19:32:10.350Z,102350.82
2023-02-12T19:34:38.365Z,102348.14
2023-02-12T19:37:08.986Z,102342.69
2023-02-12T19:39:38.019Z,102340.82
2023-02-12T19:42:05.780Z,102343.55
2023-02-12T19:44:33.565Z,102336.33
2023-02-12T19:47:01.379Z,102333.11
2023-02-12T19:49:29.242Z,102328.16
2023-02-12T19:51:57.099Z,102328.11
2023-02-12T19:54:25.270Z,102318.38
2023-02-12T19:56:55.212Z,102317.02
2023-02-12T19:59:25.395Z,102317.14
2023-02-12T20:01:54.040Z,102321.45
2023-02-12T20:04:23.802Z,102317.27
2023-02-12T20:06:52.386Z,102315.33
2023-02-12T20:09:22.084Z,102312.98
2023-02-12T20:11:50.761Z,102309.66
2023-02-12T20:14:20.811Z,102307.75
2023-02-12T20:16:50.407Z,102309.15
2023-02-12T20:19:22.965Z,102312.80
2023-02-12T20:21:55.331Z,102314.48
2023-02-12T20:24:30.972Z,102314.11
2023-02-12T20:27:00.972Z,102309.23
2023-02-12T20:29:28.956Z,102314.12
2023-02-12T20:31:57.256Z,102304.70
2023-02-12T20:34:25.203Z,102306.20
2023-02-12T20:36:53.952Z,102302.66
2023-02-12T20:39:21.998Z,102305.27
2023-02-12T20:41:50.129Z,102304.44
2023-02-12T20:44:20.577Z,102308.35
2023-02-12T20:46:52.504Z,102308.02
2023-02-12T20:49:24.497Z,102308.13
2023-02-12T20:51:52.749Z,102307.71
2023-02-12T20:54:21.170Z,102300.02
2023-02-12T20:56:50.359Z,102293.69
2023-02-12T20:59:18.972Z,102286.48
2023-02-12T21:01:47.498Z,102289.55
2023-02-12T21:04:17.796Z,102277.96
2023-02-12T21:06:45.954Z,102277.96
2023-02-12T21:09:14.909Z,102277.20
2023-02-12T21:11:45.683Z,102279.02
2023-02-12T21:14:24.007Z,102279.92
2023-02-12T21:16:54.681Z,102277.88
2023-02-12T21:19:22.531Z,102277.51
2023-02-12T21:21:50.266Z,102273.05
2023-02-12T21:24:21.577Z,102269.05
2023-02-12T21:26:50.826Z,102271.28
2023-02-12T21:29:19.474Z,102268.86
2023-02-12T21:31:49.643Z,102270.02
2023-02-12T21:34:21.177Z,102268.52
2023-02-12T21:36:50.401Z,102265.63
2023-02-12T21:39:24.882Z,102266.95
2023-02-12T21:41:55.525Z,102267.56
2023-02-12T21:44:24.744Z,102264.04
2023-02-12T21:46:53.102Z,102261.30
2023-02-12T21:49:28.268Z,102263.10
2023-02-12T21:52:04.426Z,102267.23
2023-02-12T21:54:32.426Z,102267.67
2023-02-12T21:57:00.739Z,102266.32
2023-02-12T21:59:31.758Z,102265.48
2023-02-12T22:02:00.768Z,102262.94
2023-02-12T22:04:29.240Z,102261.66
2023-02-12T22:06:58.230Z,102264.15
2023-02-12T22:09:26.165Z,102257.36
2023-02-12T22:11:54.148Z,102254.05
2023-02-12T22:14:22.602Z,102253.05
2023-02-12T22:16:50.810Z,102250.20
2023-02-12T22:19:18.708Z,102247.57
2023-02-12T22:21:51.271Z,102247.21
2023-02-12T22:24:20.015Z,102247.63
2023-02-12T22:26:47.913Z,102247.25
2023-02-12T22:29:16.274Z,102243.73
2023-02-12T22:31:46.055Z,102242.28
2023-02-12T22:34:17.073Z,102241.56
2023-02-12T22:36:46.925Z,102234.27
2023-02-12T22:39:15.380Z,102236.77
2023-02-12T22:41:43.266Z,102240.64
2023-02-12T22:44:12.982Z,102231.66
2023-02-12T22:46:44.110Z,102231.09
2023-02-12T22:49:12.000Z,102229.95
2023-02-12T22:51:40.460Z,102229.55
2023-02-12T22:54:13.921Z,102224.05
2023-02-12T22:56:42.090Z,102224.10
2023-02-12T22:59:11.114Z,102217.54
2023-02-12T23:01:40.011Z,102215.91
2023-02-12T23:04:12.454Z,102212.21
2023-02-12T23:06:40.296Z,102212.31
2023-02-12T23:09:12.622Z,102208.66
2023-02-12T23:11:40.544Z,102204.01
2023-02-12T23:14:08.367Z,102201.34
2023-02-12T23:16:36.170Z,102200.30
2023-02-12T23:19:03.954Z,102190.85
2023-02-12T23:21:32.565Z,102189.45
2023-02-12T23:24:00.458Z,102182.34
2023-02-12T23:26:29.600Z,102182.63
2023-02-12T23:28:57.658Z,102180.67
2023-02-12T23:31:25.976Z,102175.40
2023-02-12T23:33:54.066Z,102174.83
2023-02-12T23:36:21.949Z,102169.63
2023-02-12T23:38:49.696Z,102166.89
2023-02-12T23:41:17.754Z,102166.63
2023-02-12T23:43:45.654Z,102166.98
2023-02-12T23:46:13.438Z,102167.70
2023-02-12T23:48:41.322Z,102164.50
2023-02-12T23:51:09.272Z,102156.52
2023-02-12T23:53:37.110Z,102153.10
2023-02-12T23:56:04.996Z,102153.88
2023-02-12T23:58:32.711Z,102153.52
